Faneromeni — SVKG — position and weather

sailwx.info

Track history (hours):
 
Tides and Currents Weather Stations Pressure Air Temp Water Temp Dewpoint Dewpoint Depression Visibility Wind Speed Wind Dir Waves Ship Positions

Faneromeni

Last reported at 2015-Aug-28 22:26 UTC. Time now 2015-Aug-29 14:47 UTC.
Position N 40°55' E 028°51'.

Length 230 m; draft 13.2 m.

Type: Cargo ship. MMSI: 240576000.

Date/timePositionNaut miles runAvg speedWind from/ knotsBaromVisibWave heightAir tempDewpointWater temp
2015-Aug-28 22:26N 40°55' E 028°51'195 7.8
2015-Aug-27 21:33N 44°00' E 030°13'1111.5
2015-Aug-27 20:33N 44°11' E 030°16'1111.4
2015-Aug-27 19:33N 44°22' E 030°21'2311.4
2015-Aug-27 17:31N 44°44' E 030°30'1211.4
2015-Aug-27 16:29N 44°56' E 030°35'1211.4
2015-Aug-27 15:25N 45°07' E 030°40'6410.9
2015-Aug-27 09:33N 46°09' E 031°02'27 5.0
2015-Aug-27 04:16N 46°34' E 031°15'0 0.1
2015-Aug-27 03:32N 46°34' E 031°15'0 0.0
2015-Aug-27 02:30N 46°34' E 031°15'0 0.0
2015-Aug-27 01:33N 46°34' E 031°15'0 0.0
2015-Aug-27 00:33N 46°34' E 031°15'0 0.0
2015-Aug-26 23:33N 46°34' E 031°15'0 0.0
2015-Aug-26 22:33N 46°34' E 031°15'0 0.0
2015-Aug-26 21:33N 46°34' E 031°15'0 0.0
2015-Aug-26 20:33N 46°34' E 031°15'1 0.8
2015-Aug-26 19:33N 46°34' E 031°14'7 7.1
2015-Aug-26 18:33N 46°34' E 031°03'6 6.1
2015-Aug-26 17:33N 46°30' E 030°57'0 0.2
2015-Aug-26 14:32N 46°30' E 030°58'0 0.0
2015-Aug-26 13:32N 46°30' E 030°58'0 0.0
2015-Aug-26 06:11N 46°30' E 030°58'0 0.2
2015-Aug-26 05:32N 46°30' E 030°58'2 1.8
2015-Aug-26 04:33N 46°31' E 030°57'7 7.2
2015-Aug-26 03:33N 46°35' E 031°07'6 5.4
2015-Aug-26 02:31N 46°34' E 031°15'0 0.0
2015-Aug-26 01:31N 46°34' E 031°15'0 0.0
2015-Aug-26 00:31N 46°34' E 031°15'0 0.0
2015-Aug-25 23:31N 46°34' E 031°15'0 0.0
2015-Aug-25 22:31N 46°34' E 031°15'0 0.0
2015-Aug-25 21:31N 46°34' E 031°15'0 0.0
2015-Aug-25 20:31N 46°34' E 031°15'0 0.0
2015-Aug-25 18:28N 46°34' E 031°15'0 0.0
2015-Aug-25 17:31N 46°34' E 031°15'0 0.0
2015-Aug-25 05:10N 46°34' E 031°15'0 0.0
2015-Aug-25 04:31N 46°34' E 031°15'0 0.0
2015-Aug-25 00:07N 46°34' E 031°15'0 0.0
2015-Aug-24 23:31N 46°34' E 031°15'0 0.0
2015-Aug-24 21:25N 46°34' E 031°15'0 0.0
2015-Aug-23 16:25N 46°34' E 031°15'0 0.0
2015-Aug-23 06:07N 46°34' E 031°15'0 0.0
2015-Aug-23 05:31N 46°34' E 031°15'0 0.0
2015-Aug-23 04:28N 46°34' E 031°15'0 0.0
2015-Aug-23 03:31N 46°34' E 031°15'0 0.0
2015-Aug-23 02:22N 46°34' E 031°15'0 0.0
2015-Aug-23 01:19N 46°34' E 031°15'0 0.0
2015-Aug-23 00:31N 46°34' E 031°15'0 0.0
2015-Aug-22 05:19N 46°34' E 031°15'0 0.0
2015-Aug-22 04:25N 46°34' E 031°15'0 0.0
2015-Aug-22 03:31N 46°34' E 031°15'0 0.0
2015-Aug-22 02:13N 46°34' E 031°15'0 0.0
2015-Aug-22 01:31N 46°34' E 031°15'0 0.0
2015-Aug-21 22:16N 46°34' E 031°14'0 0.0
2015-Aug-21 07:10N 46°34' E 031°15'0 0.0
2015-Aug-21 04:31N 46°34' E 031°15'0 0.0
2015-Aug-21 02:31N 46°34' E 031°15'0 0.0
2015-Aug-21 01:31N 46°34' E 031°15'0 0.0
2015-Aug-20 22:13N 46°34' E 031°15'0 0.0
2015-Aug-20 20:31N 46°34' E 031°15'0 0.0
2015-Aug-20 19:13N 46°34' E 031°15'0 0.0
2015-Aug-20 11:04N 46°34' E 031°14'0 0.0
2015-Aug-20 09:31N 46°34' E 031°15'0 0.0
2015-Aug-20 08:31N 46°34' E 031°15'0 0.0
2015-Aug-20 07:25N 46°34' E 031°14'0 0.0
2015-Aug-20 06:07N 46°34' E 031°14'0 0.0
2015-Aug-20 05:28N 46°34' E 031°14'0 0.0
2015-Aug-20 04:31N 46°34' E 031°14'0 0.0
2015-Aug-20 03:28N 46°34' E 031°14'0 0.0
2015-Aug-20 02:19N 46°34' E 031°14'0 0.0
2015-Aug-20 01:25N 46°34' E 031°14'0 0.1
2015-Aug-20 00:31N 46°34' E 031°14'0 0.0
2015-Aug-19 22:31N 46°34' E 031°14'0 0.0
2015-Aug-19 21:31N 46°34' E 031°14'0 0.0
2015-Aug-19 20:31N 46°34' E 031°14'0 0.0
2015-Aug-19 05:16N 46°34' E 031°14'  
Track history (hours):
 
Tides and Currents Weather Stations Pressure Air Temp Water Temp Dewpoint Dewpoint Depression Visibility Wind Speed Wind Dir Waves Ship Positions

Faneromeni

Last reported at 2015-Aug-28 22:26 UTC. Time now 2015-Aug-29 14:47 UTC.
Position N 40°55' E 028°51'.

Length 230 m; draft 13.2 m.

Type: Cargo ship. MMSI: 240576000.

Date/timePositionNaut miles runAvg speedWind from/ knotsBaromVisibWave heightAir tempDewpointWater temp
2015-Aug-28 22:26N 40°55' E 028°51'195 7.8
2015-Aug-27 21:33N 44°00' E 030°13'1111.5
2015-Aug-27 20:33N 44°11' E 030°16'1111.4
2015-Aug-27 19:33N 44°22' E 030°21'2311.4
2015-Aug-27 17:31N 44°44' E 030°30'1211.4
2015-Aug-27 16:29N 44°56' E 030°35'1211.4
2015-Aug-27 15:25N 45°07' E 030°40'6410.9
2015-Aug-27 09:33N 46°09' E 031°02'27 5.0
2015-Aug-27 04:16N 46°34' E 031°15'0 0.1
2015-Aug-27 03:32N 46°34' E 031°15'0 0.0
2015-Aug-27 02:30N 46°34' E 031°15'0 0.0
2015-Aug-27 01:33N 46°34' E 031°15'0 0.0
2015-Aug-27 00:33N 46°34' E 031°15'0 0.0
2015-Aug-26 23:33N 46°34' E 031°15'0 0.0
2015-Aug-26 22:33N 46°34' E 031°15'0 0.0
2015-Aug-26 21:33N 46°34' E 031°15'0 0.0
2015-Aug-26 20:33N 46°34' E 031°15'1 0.8
2015-Aug-26 19:33N 46°34' E 031°14'7 7.1
2015-Aug-26 18:33N 46°34' E 031°03'6 6.1
2015-Aug-26 17:33N 46°30' E 030°57'0 0.2
2015-Aug-26 14:32N 46°30' E 030°58'0 0.0
2015-Aug-26 13:32N 46°30' E 030°58'0 0.0
2015-Aug-26 06:11N 46°30' E 030°58'0 0.2
2015-Aug-26 05:32N 46°30' E 030°58'2 1.8
2015-Aug-26 04:33N 46°31' E 030°57'7 7.2
2015-Aug-26 03:33N 46°35' E 031°07'6 5.4
2015-Aug-26 02:31N 46°34' E 031°15'0 0.0
2015-Aug-26 01:31N 46°34' E 031°15'0 0.0
2015-Aug-26 00:31N 46°34' E 031°15'0 0.0
2015-Aug-25 23:31N 46°34' E 031°15'0 0.0
2015-Aug-25 22:31N 46°34' E 031°15'0 0.0
2015-Aug-25 21:31N 46°34' E 031°15'0 0.0
2015-Aug-25 20:31N 46°34' E 031°15'0 0.0
2015-Aug-25 18:28N 46°34' E 031°15'0 0.0
2015-Aug-25 17:31N 46°34' E 031°15'0 0.0
2015-Aug-25 05:10N 46°34' E 031°15'0 0.0
2015-Aug-25 04:31N 46°34' E 031°15'0 0.0
2015-Aug-25 00:07N 46°34' E 031°15'0 0.0
2015-Aug-24 23:31N 46°34' E 031°15'0 0.0
2015-Aug-24 21:25N 46°34' E 031°15'0 0.0
2015-Aug-23 16:25N 46°34' E 031°15'0 0.0
2015-Aug-23 06:07N 46°34' E 031°15'0 0.0
2015-Aug-23 05:31N 46°34' E 031°15'0 0.0
2015-Aug-23 04:28N 46°34' E 031°15'0 0.0
2015-Aug-23 03:31N 46°34' E 031°15'0 0.0
2015-Aug-23 02:22N 46°34' E 031°15'0 0.0
2015-Aug-23 01:19N 46°34' E 031°15'0 0.0
2015-Aug-23 00:31N 46°34' E 031°15'0 0.0
2015-Aug-22 05:19N 46°34' E 031°15'0 0.0
2015-Aug-22 04:25N 46°34' E 031°15'0 0.0
2015-Aug-22 03:31N 46°34' E 031°15'0 0.0
2015-Aug-22 02:13N 46°34' E 031°15'0 0.0
2015-Aug-22 01:31N 46°34' E 031°15'0 0.0
2015-Aug-21 22:16N 46°34' E 031°14'0 0.0
2015-Aug-21 07:10N 46°34' E 031°15'0 0.0
2015-Aug-21 04:31N 46°34' E 031°15'0 0.0
2015-Aug-21 02:31N 46°34' E 031°15'0 0.0
2015-Aug-21 01:31N 46°34' E 031°15'0 0.0
2015-Aug-20 22:13N 46°34' E 031°15'0 0.0
2015-Aug-20 20:31N 46°34' E 031°15'0 0.0
2015-Aug-20 19:13N 46°34' E 031°15'0 0.0
2015-Aug-20 11:04N 46°34' E 031°14'0 0.0
2015-Aug-20 09:31N 46°34' E 031°15'0 0.0
2015-Aug-20 08:31N 46°34' E 031°15'0 0.0
2015-Aug-20 07:25N 46°34' E 031°14'0 0.0
2015-Aug-20 06:07N 46°34' E 031°14'0 0.0
2015-Aug-20 05:28N 46°34' E 031°14'0 0.0
2015-Aug-20 04:31N 46°34' E 031°14'0 0.0
2015-Aug-20 03:28N 46°34' E 031°14'0 0.0
2015-Aug-20 02:19N 46°34' E 031°14'0 0.0
2015-Aug-20 01:25N 46°34' E 031°14'0 0.1
2015-Aug-20 00:31N 46°34' E 031°14'0 0.0
2015-Aug-19 22:31N 46°34' E 031°14'0 0.0
2015-Aug-19 21:31N 46°34' E 031°14'0 0.0
2015-Aug-19 20:31N 46°34' E 031°14'0 0.0
2015-Aug-19 05:16N 46°34' E 031°14'  

Dump ship's entire track history